This is the latest recevied weather packets stored in our database for station/object AF0GV-15. If no packets are shown the sender has not sent any weather packets the latest 10 day(s).
| Time | Temp. | Humidity | Pressure | Rain* | Wind** | Luminosity | Snow |
|---|---|---|---|---|---|---|---|
| 1788137053 | 91° F | 49% | 757.3 mmHg | 0 in | - | - | - |
| 1788136104 | 92° F | 48% | 757.3 mmHg | 0 in | - | - | - |
| 1788135155 | 94° F | 48% | 757.3 mmHg | 0 in | - | - | - |
| 1788134206 | 95° F | 46% | 757.2 mmHg | 0 in | - | - | - |
| 1788133257 | 96° F | 43% | 757.1 mmHg | 0 in | - | - | - |
| 1788132307 | 96° F | 43% | 757 mmHg | 0 in | - | - | - |
| 1788131358 | 97° F | 43% | 757 mmHg | 0 in | - | - | - |
| 1788130409 | 97° F | 43% | 756.9 mmHg | 0 in | - | - | - |
| 1788129460 | 98° F | 44% | 757 mmHg | 0 in | - | - | - |
| 1788128512 | 98° F | 44% | 757 mmHg | 0 in | - | - | - |
| 1788127562 | 98° F | 43% | 757 mmHg | 0 in | - | - | - |
| 1788126613 | 98° F | 43% | 757 mmHg | 0 in | - | - | - |
| 1788125665 | 98° F | 43% | 757.2 mmHg | 0 in | - | - | - |
| 1788124715 | 98° F | 44% | 757.3 mmHg | 0 in | - | - | - |
| 1788123769 | 98° F | 43% | 757.3 mmHg | 0 in | - | - | - |
| 1788122818 | 98° F | 44% | 757.6 mmHg | 0 in | - | - | - |
| 1788121869 | 98° F | 45% | 757.6 mmHg | 0 in | - | - | - |
| 1788120919 | 97° F | 44% | 757.8 mmHg | 0 in | - | - | - |
| 1788119970 | 97° F | 45% | 758 mmHg | 0 in | - | - | - |
| 1788119022 | 97° F | 45% | 758.2 mmHg | 0 in | - | - | - |
| 1788118072 | 96° F | 47% | 758.3 mmHg | 0 in | - | - | - |
| 1788117124 | 95° F | 49% | 758.4 mmHg | 0 in | - | - | - |
| 1788116175 | 94° F | 48% | 758.5 mmHg | 0 in | - | - | - |
| 1788115225 | 94° F | 51% | 758.7 mmHg | 0 in | - | - | - |
| 1788114276 | 93° F | 51% | 758.8 mmHg | 0 in | - | - | - |
* Rain latest hour (hover to see other rain measurements)
** Current wind speed in m/s (hover to see current wind gust speed)